createdAt,value
2023-05-24T00:00:43.292Z,1015.00
2023-05-24T00:01:43.104Z,1021.00
2023-05-24T00:02:43.367Z,1019.00
2023-05-24T00:03:43.328Z,1012.00
2023-05-24T00:04:43.320Z,1004.00
2023-05-24T00:05:43.397Z,1007.00
2023-05-24T00:06:43.425Z,1000.00
2023-05-24T00:07:43.471Z,984.00
2023-05-24T00:08:43.560Z,976.00
2023-05-24T00:09:43.590Z,972.00
2023-05-24T00:10:43.902Z,989.00
2023-05-24T00:11:43.668Z,986.00
2023-05-24T00:12:43.720Z,983.00
2023-05-24T00:13:43.771Z,967.00
2023-05-24T00:14:43.837Z,957.00
2023-05-24T00:15:43.885Z,957.00
2023-05-24T00:16:43.991Z,968.00
2023-05-24T00:17:44.057Z,963.00
2023-05-24T00:18:44.048Z,978.00
2023-05-24T00:19:44.079Z,965.00
2023-05-24T00:20:44.381Z,955.00
2023-05-24T00:21:44.183Z,956.00
2023-05-24T00:22:44.247Z,950.00
2023-05-24T00:23:44.297Z,966.00
2023-05-24T00:24:44.354Z,961.00
2023-05-24T00:25:44.395Z,948.00
2023-05-24T00:26:44.467Z,958.00
2023-05-24T00:27:44.488Z,963.00
2023-05-24T00:28:44.511Z,960.00
2023-05-24T00:29:44.541Z,960.00
2023-05-24T00:30:44.762Z,954.00
2023-05-24T00:31:44.630Z,953.00
2023-05-24T00:32:44.725Z,966.00
2023-05-24T00:33:44.693Z,964.00
2023-05-24T00:34:44.716Z,963.00
2023-05-24T00:35:44.762Z,979.00
2023-05-24T00:36:44.814Z,960.00
2023-05-24T00:37:44.870Z,971.00
2023-05-24T00:38:44.907Z,966.00
2023-05-24T00:39:44.935Z,953.00
2023-05-24T00:40:44.982Z,958.00
2023-05-24T00:41:44.974Z,958.00
2023-05-24T00:42:45.023Z,963.00
2023-05-24T00:43:45.047Z,960.00
2023-05-24T00:44:45.085Z,960.00
2023-05-24T00:45:45.149Z,959.00
2023-05-24T00:46:45.141Z,961.00
2023-05-24T00:47:45.221Z,962.00
2023-05-24T00:48:45.188Z,954.00
2023-05-24T00:49:45.216Z,961.00
2023-05-24T00:50:45.223Z,963.00
2023-05-24T00:51:45.197Z,966.00
2023-05-24T00:52:45.195Z,965.00
2023-05-24T00:53:45.157Z,970.00
2023-05-24T00:54:45.144Z,971.00
2023-05-24T00:55:45.135Z,967.00
2023-05-24T00:56:45.118Z,983.00
2023-05-24T00:57:45.100Z,969.00
2023-05-24T00:58:45.103Z,976.00
2023-05-24T00:59:45.099Z,970.00
2023-05-24T01:00:45.075Z,966.00
2023-05-24T01:01:45.087Z,970.00
2023-05-24T01:02:45.180Z,971.00
2023-05-24T01:03:45.195Z,974.00
2023-05-24T01:04:45.027Z,971.00
2023-05-24T01:05:45.007Z,975.00
2023-05-24T01:06:45.055Z,981.00
2023-05-24T01:07:44.978Z,983.00
2023-05-24T01:08:44.991Z,990.00
2023-05-24T01:09:44.958Z,987.00
2023-05-24T01:10:44.996Z,991.00
2023-05-24T01:11:44.957Z,997.00
2023-05-24T01:12:44.965Z,994.00
2023-05-24T01:13:44.955Z,989.00
2023-05-24T01:14:45.004Z,982.00
2023-05-24T01:15:45.070Z,989.00
2023-05-24T01:16:45.061Z,995.00
2023-05-24T01:17:45.108Z,981.00
2023-05-24T01:18:45.099Z,1005.00
2023-05-24T01:19:45.114Z,994.00
2023-05-24T01:20:45.447Z,996.00
2023-05-24T01:21:45.148Z,1008.00
2023-05-24T01:22:45.199Z,988.00
2023-05-24T01:23:45.231Z,1009.00
2023-05-24T01:24:45.284Z,988.00
2023-05-24T01:25:45.311Z,1005.00
2023-05-24T01:26:45.332Z,1000.00
2023-05-24T01:27:45.390Z,995.00
2023-05-24T01:28:45.405Z,993.00
2023-05-24T01:29:45.399Z,997.00
2023-05-24T01:30:45.455Z,997.00
2023-05-24T01:31:45.573Z,994.00
2023-05-24T01:32:45.548Z,1005.00
2023-05-24T01:33:45.503Z,1010.00
2023-05-24T01:34:45.570Z,1001.00
2023-05-24T01:35:45.654Z,998.00
2023-05-24T01:36:45.645Z,987.00
2023-05-24T01:37:45.698Z,990.00
2023-05-24T01:38:45.720Z,981.00
2023-05-24T01:39:45.745Z,986.00
2023-05-24T01:40:45.832Z,992.00
2023-05-24T01:41:45.852Z,996.00
2023-05-24T01:42:45.863Z,986.00
2023-05-24T01:43:45.904Z,978.00
2023-05-24T01:44:45.939Z,986.00
2023-05-24T01:45:46.000Z,994.00
2023-05-24T01:46:46.077Z,993.00
2023-05-24T01:47:46.077Z,990.00
2023-05-24T01:48:46.077Z,980.00
2023-05-24T01:49:46.104Z,986.00
2023-05-24T01:50:46.144Z,995.00
2023-05-24T01:51:46.175Z,1004.00
2023-05-24T01:52:46.139Z,983.00
2023-05-24T01:53:46.340Z,982.00
2023-05-24T01:54:46.232Z,987.00
2023-05-24T01:55:46.255Z,985.00
2023-05-24T01:56:46.250Z,995.00
2023-05-24T01:57:46.300Z,998.00
2023-05-24T01:58:46.292Z,986.00
2023-05-24T01:59:46.326Z,976.00
2023-05-24T02:00:46.407Z,986.00
2023-05-24T02:01:46.330Z,984.00
2023-05-24T02:02:46.439Z,971.00
2023-05-24T02:03:46.319Z,988.00
2023-05-24T02:04:46.346Z,979.00
2023-05-24T02:05:46.334Z,988.00
2023-05-24T02:06:46.331Z,977.00
2023-05-24T02:07:46.337Z,982.00
2023-05-24T02:08:46.366Z,991.00
2023-05-24T02:09:46.372Z,1000.00
2023-05-24T02:10:46.366Z,999.00
2023-05-24T02:11:46.342Z,990.00
2023-05-24T02:12:46.342Z,986.00
2023-05-24T02:13:46.363Z,977.00
2023-05-24T02:14:46.370Z,975.00
2023-05-24T02:15:46.378Z,985.00
2023-05-24T02:16:46.408Z,1000.00
2023-05-24T02:17:46.449Z,990.00
2023-05-24T02:18:46.430Z,984.00
2023-05-24T02:19:46.449Z,992.00
2023-05-24T02:20:46.567Z,991.00
2023-05-24T02:21:46.485Z,995.00
2023-05-24T02:22:46.468Z,994.00
2023-05-24T02:23:46.465Z,996.00
2023-05-24T02:24:46.424Z,990.00
2023-05-24T02:25:46.456Z,982.00
2023-05-24T02:26:46.404Z,984.00
2023-05-24T02:27:46.394Z,988.00
2023-05-24T02:28:46.386Z,986.00
2023-05-24T02:29:46.355Z,967.00
2023-05-24T02:30:46.374Z,971.00
2023-05-24T02:31:46.332Z,986.00
2023-05-24T02:32:46.375Z,983.00
2023-05-24T02:33:46.302Z,994.00
2023-05-24T02:34:46.281Z,982.00
2023-05-24T02:35:46.277Z,995.00
2023-05-24T02:36:46.281Z,979.00
2023-05-24T02:37:46.254Z,984.00
2023-05-24T02:38:46.275Z,1002.00
2023-05-24T02:39:46.233Z,983.00
2023-05-24T02:40:46.207Z,980.00
2023-05-24T02:41:46.200Z,984.00
2023-05-24T02:42:46.199Z,984.00
2023-05-24T02:43:46.183Z,986.00
2023-05-24T02:44:46.175Z,978.00
2023-05-24T02:45:46.153Z,995.00
2023-05-24T02:46:46.210Z,997.00
2023-05-24T02:47:46.171Z,986.00
2023-05-24T02:48:46.110Z,984.00
2023-05-24T02:49:46.101Z,977.00
2023-05-24T02:50:46.094Z,972.00
2023-05-24T02:51:46.074Z,984.00
2023-05-24T02:52:46.110Z,987.00
2023-05-24T02:53:46.139Z,979.00
2023-05-24T02:54:46.144Z,987.00
2023-05-24T02:55:46.143Z,988.00
2023-05-24T02:56:46.145Z,987.00
2023-05-24T02:57:46.134Z,988.00
2023-05-24T02:58:46.131Z,990.00
2023-05-24T02:59:46.100Z,989.00
2023-05-24T03:00:46.099Z,993.00
2023-05-24T03:01:46.118Z,985.00
2023-05-24T03:02:46.136Z,1002.00
2023-05-24T03:03:46.208Z,977.00
2023-05-24T03:04:46.037Z,996.00
2023-05-24T03:05:46.048Z,988.00
2023-05-24T03:06:46.023Z,980.00
2023-05-24T03:07:46.017Z,980.00
2023-05-24T03:08:46.024Z,990.00
2023-05-24T03:09:46.014Z,987.00
2023-05-24T03:10:45.986Z,974.00
2023-05-24T03:11:45.973Z,969.00
2023-05-24T03:12:45.979Z,988.00
2023-05-24T03:13:45.956Z,989.00
2023-05-24T03:14:45.938Z,978.00
2023-05-24T03:15:45.945Z,979.00
2023-05-24T03:16:46.009Z,991.00
2023-05-24T03:17:45.960Z,988.00
2023-05-24T03:18:45.917Z,976.00
2023-05-24T03:19:45.897Z,983.00
2023-05-24T03:20:45.951Z,989.00
2023-05-24T03:21:45.890Z,983.00
2023-05-24T03:22:45.866Z,985.00
2023-05-24T03:23:45.875Z,987.00
2023-05-24T03:24:45.841Z,969.00
2023-05-24T03:25:45.841Z,991.00
2023-05-24T03:26:45.828Z,971.00
2023-05-24T03:27:45.845Z,991.00
2023-05-24T03:28:45.828Z,981.00
2023-05-24T03:29:45.834Z,980.00
2023-05-24T03:30:45.809Z,981.00
2023-05-24T03:31:45.834Z,981.00
2023-05-24T03:32:45.873Z,978.00
2023-05-24T03:33:45.805Z,984.00
2023-05-24T03:34:45.786Z,973.00
2023-05-24T03:35:45.776Z,992.00
2023-05-24T03:36:45.783Z,974.00
2023-05-24T03:37:45.770Z,984.00
2023-05-24T03:38:45.801Z,981.00
2023-05-24T03:39:45.758Z,986.00
2023-05-24T03:40:45.758Z,993.00
2023-05-24T03:41:45.760Z,979.00
2023-05-24T03:42:45.738Z,973.00
2023-05-24T03:43:45.727Z,973.00
2023-05-24T03:44:45.717Z,979.00
2023-05-24T03:45:45.793Z,979.00
2023-05-24T03:46:45.693Z,972.00
2023-05-24T03:47:45.763Z,978.00
2023-05-24T03:48:45.690Z,962.00
2023-05-24T03:49:45.699Z,982.00
2023-05-24T03:50:45.752Z,965.00
2023-05-24T03:51:45.687Z,957.00
2023-05-24T03:52:45.696Z,965.00
2023-05-24T03:53:45.679Z,965.00
2023-05-24T03:54:45.672Z,956.00
2023-05-24T03:55:45.669Z,976.00
2023-05-24T03:56:45.668Z,966.00
2023-05-24T03:57:45.677Z,947.00
2023-05-24T03:58:45.647Z,939.00
2023-05-24T03:59:45.650Z,947.00
2023-05-24T04:00:45.616Z,952.00
2023-05-24T04:01:45.635Z,945.00
2023-05-24T04:02:45.676Z,944.00
2023-05-24T04:03:45.860Z,937.00
2023-05-24T04:04:45.588Z,953.00
2023-05-24T04:05:45.585Z,934.00
2023-05-24T04:06:45.585Z,933.00
2023-05-24T04:07:45.589Z,933.00
2023-05-24T04:08:45.566Z,944.00
2023-05-24T04:09:45.562Z,933.00
2023-05-24T04:10:45.630Z,938.00
2023-05-24T04:11:45.546Z,937.00
2023-05-24T04:12:45.544Z,925.00
2023-05-24T04:13:45.549Z,939.00
2023-05-24T04:14:45.504Z,920.00
2023-05-24T04:15:45.498Z,928.00
2023-05-24T04:16:45.542Z,915.00
2023-05-24T04:17:45.632Z,915.00
2023-05-24T04:18:45.615Z,919.00
2023-05-24T04:19:45.467Z,918.00
2023-05-24T04:20:45.585Z,895.00
2023-05-24T04:21:45.470Z,904.00
2023-05-24T04:22:45.443Z,908.00
2023-05-24T04:23:45.472Z,899.00
2023-05-24T04:24:45.467Z,896.00
2023-05-24T04:25:45.449Z,900.00
2023-05-24T04:26:45.444Z,891.00
2023-05-24T04:27:45.457Z,893.00
2023-05-24T04:28:45.456Z,905.00
2023-05-24T04:29:45.536Z,891.00
2023-05-24T04:30:45.480Z,889.00
2023-05-24T04:31:45.576Z,893.00
2023-05-24T04:32:45.478Z,898.00
2023-05-24T04:33:45.449Z,881.00
2023-05-24T04:34:45.464Z,896.00
2023-05-24T04:35:45.461Z,880.00
2023-05-24T04:36:45.456Z,881.00
2023-05-24T04:37:45.437Z,884.00
2023-05-24T04:38:45.412Z,881.00
2023-05-24T04:39:45.403Z,884.00
2023-05-24T04:40:45.490Z,882.00
2023-05-24T04:41:45.414Z,886.00
2023-05-24T04:42:45.378Z,890.00
2023-05-24T04:43:45.368Z,887.00
2023-05-24T04:44:45.384Z,902.00
2023-05-24T04:45:45.372Z,899.00
2023-05-24T04:46:45.368Z,881.00
2023-05-24T04:47:45.447Z,878.00
2023-05-24T04:48:45.346Z,885.00
2023-05-24T04:49:45.335Z,874.00
2023-05-24T04:50:45.327Z,886.00
2023-05-24T04:51:45.324Z,876.00
2023-05-24T04:52:45.301Z,881.00
2023-05-24T04:53:45.289Z,869.00
2023-05-24T04:54:45.275Z,868.00
2023-05-24T04:55:45.284Z,858.00
2023-05-24T04:56:45.269Z,882.00
2023-05-24T04:57:45.258Z,874.00
2023-05-24T04:58:45.255Z,864.00
2023-05-24T04:59:45.254Z,853.00
2023-05-24T05:00:45.228Z,851.00
2023-05-24T05:01:45.362Z,860.00
2023-05-24T05:02:45.316Z,855.00
2023-05-24T05:03:45.255Z,858.00
2023-05-24T05:04:45.182Z,844.00
2023-05-24T05:05:45.179Z,855.00
2023-05-24T05:06:45.183Z,839.00
2023-05-24T05:07:45.147Z,849.00
2023-05-24T05:08:45.170Z,856.00
2023-05-24T05:09:45.133Z,840.00
2023-05-24T05:10:45.146Z,848.00
2023-05-24T05:11:45.121Z,837.00
2023-05-24T05:12:45.101Z,837.00
2023-05-24T05:13:45.113Z,839.00
2023-05-24T05:14:45.094Z,832.00
2023-05-24T05:15:45.086Z,841.00
2023-05-24T05:16:45.163Z,822.00
2023-05-24T05:17:45.102Z,828.00
2023-05-24T05:18:45.068Z,830.00
2023-05-24T05:19:45.069Z,830.00
2023-05-24T05:20:45.523Z,826.00
2023-05-24T05:21:45.070Z,829.00
2023-05-24T05:22:45.030Z,836.00
2023-05-24T05:23:45.030Z,845.00
2023-05-24T05:24:45.036Z,836.00
2023-05-24T05:25:45.043Z,836.00
2023-05-24T05:26:45.038Z,828.00
2023-05-24T05:27:45.191Z,837.00
2023-05-24T05:28:45.046Z,856.00
2023-05-24T05:29:45.030Z,855.00
2023-05-24T05:30:45.042Z,845.00
2023-05-24T05:31:45.023Z,852.00
2023-05-24T05:32:45.088Z,859.00
2023-05-24T05:33:44.990Z,868.00
2023-05-24T05:34:44.972Z,883.00
2023-05-24T05:35:44.969Z,897.00
2023-05-24T05:36:44.937Z,943.00
2023-05-24T05:37:44.932Z,966.00
2023-05-24T05:38:44.928Z,1000.00
2023-05-24T05:39:44.967Z,1029.00
2023-05-24T05:40:44.910Z,1070.00
2023-05-24T05:41:45.939Z,1131.00
2023-05-24T05:42:44.890Z,1188.00
2023-05-24T05:43:44.870Z,1230.00
2023-05-24T05:44:44.870Z,1287.00
2023-05-24T05:45:44.897Z,1344.00
2023-05-24T05:46:44.868Z,1393.00
2023-05-24T05:47:44.889Z,1445.00
2023-05-24T05:48:46.410Z,1483.00
2023-05-24T05:49:44.811Z,1564.00
2023-05-24T05:50:44.814Z,1626.00
2023-05-24T05:51:44.857Z,1684.00
2023-05-24T05:52:44.918Z,1718.00
2023-05-24T05:53:45.026Z,1737.00
2023-05-24T05:54:45.080Z,1757.00
2023-05-24T05:55:45.084Z,1827.00
2023-05-24T05:56:45.072Z,1829.00
2023-05-24T05:57:45.036Z,1830.00
2023-05-24T05:58:45.052Z,1839.00
2023-05-24T05:59:45.046Z,1867.00
2023-05-24T06:00:45.038Z,1910.00
2023-05-24T06:01:44.997Z,1952.00
2023-05-24T06:02:45.071Z,1959.00
2023-05-24T06:03:45.324Z,1989.00
2023-05-24T06:04:45.022Z,2010.00
2023-05-24T06:05:44.959Z,2038.00
2023-05-24T06:06:45.035Z,2046.00
2023-05-24T06:07:44.999Z,2052.00
2023-05-24T06:08:45.055Z,2081.00
2023-05-24T06:09:45.098Z,2076.00
2023-05-24T06:10:45.218Z,2092.00
2023-05-24T06:11:45.222Z,2080.00
2023-05-24T06:12:45.158Z,2081.00
2023-05-24T06:13:45.162Z,2083.00
2023-05-24T06:14:45.197Z,2086.00
2023-05-24T06:15:45.170Z,2098.00
2023-05-24T06:16:45.345Z,2081.00
2023-05-24T06:17:45.231Z,2033.00
2023-05-24T06:18:57.047Z,1910.00
2023-05-24T06:19:46.090Z,1723.00
2023-05-24T06:20:45.589Z,1571.00
2023-05-24T06:21:45.093Z,1329.00
2023-05-24T06:22:45.241Z,1277.00
2023-05-24T06:23:45.071Z,1293.00
2023-05-24T06:24:45.447Z,1270.00
2023-05-24T06:25:45.724Z,1254.00
2023-05-24T06:26:45.156Z,1218.00
2023-05-24T06:27:45.431Z,1262.00
2023-05-24T06:28:45.253Z,1263.00
2023-05-24T06:29:45.270Z,1268.00
2023-05-24T06:30:45.529Z,1280.00
2023-05-24T06:31:45.229Z,1296.00
2023-05-24T06:32:45.249Z,1341.00
2023-05-24T06:33:52.422Z,1367.00
2023-05-24T06:34:46.219Z,1368.00
2023-05-24T06:35:45.221Z,1373.00
2023-05-24T06:36:45.197Z,1390.00
2023-05-24T06:37:45.186Z,1406.00
2023-05-24T06:38:45.172Z,1411.00
2023-05-24T06:39:45.159Z,1413.00
2023-05-24T06:40:45.132Z,1415.00
2023-05-24T06:41:45.144Z,1418.00
2023-05-24T06:42:45.105Z,1433.00
2023-05-24T06:43:45.156Z,1449.00
2023-05-24T06:44:45.079Z,1533.00
2023-05-24T06:45:45.076Z,1607.00
2023-05-24T06:46:45.057Z,1609.00
2023-05-24T06:47:45.114Z,1622.00
2023-05-24T06:48:45.278Z,1648.00
2023-05-24T06:49:45.051Z,1694.00
2023-05-24T06:50:45.127Z,1752.00
2023-05-24T06:51:44.985Z,1767.00
2023-05-24T06:52:44.958Z,1789.00
2023-05-24T06:53:44.971Z,1808.00
2023-05-24T06:54:44.967Z,1814.00
2023-05-24T06:55:44.973Z,1838.00
2023-05-24T06:56:44.927Z,1853.00
2023-05-24T06:57:44.907Z,1874.00
2023-05-24T06:58:44.880Z,1883.00
2023-05-24T06:59:44.880Z,1913.00
2023-05-24T07:00:45.172Z,1942.00
2023-05-24T07:01:45.191Z,1952.00
2023-05-24T07:02:44.961Z,1979.00
2023-05-24T07:03:44.928Z,1982.00
2023-05-24T07:04:44.947Z,1997.00
2023-05-24T07:05:44.916Z,2018.00
2023-05-24T07:06:44.979Z,2039.00
2023-05-24T07:07:44.951Z,2059.00
2023-05-24T07:08:44.942Z,2072.00
2023-05-24T07:09:45.028Z,2090.00
2023-05-24T07:10:45.118Z,2098.00
2023-05-24T07:11:45.031Z,2110.00
2023-05-24T07:12:44.927Z,2111.00
2023-05-24T07:13:44.907Z,2114.00
2023-05-24T07:14:44.953Z,2123.00
2023-05-24T07:15:44.877Z,2143.00
2023-05-24T07:16:44.898Z,2174.00
2023-05-24T07:17:44.895Z,2113.00
2023-05-24T07:18:44.968Z,2125.00
2023-05-24T07:19:44.794Z,2148.00
2023-05-24T07:20:45.091Z,2185.00
2023-05-24T07:21:44.780Z,2246.00
2023-05-24T07:22:44.750Z,2115.00
2023-05-24T07:23:44.709Z,2116.00
2023-05-24T07:24:44.704Z,2139.00
2023-05-24T07:25:44.695Z,2178.00
2023-05-24T07:26:44.703Z,2118.00
2023-05-24T07:27:44.659Z,2145.00
2023-05-24T07:28:44.727Z,2188.00
2023-05-24T07:29:45.784Z,2254.00
2023-05-24T07:30:44.613Z,2344.00
2023-05-24T07:31:44.663Z,2358.00
2023-05-24T07:32:44.693Z,2363.00
2023-05-24T07:33:44.524Z,2365.00
2023-05-24T07:34:44.515Z,2370.00
2023-05-24T07:35:44.493Z,2370.00
2023-05-24T07:36:44.556Z,2380.00
2023-05-24T07:37:44.641Z,2388.00
2023-05-24T07:38:44.463Z,2397.00
2023-05-24T07:39:44.453Z,2383.00
2023-05-24T07:40:44.555Z,2384.00
2023-05-24T07:41:44.404Z,2388.00
2023-05-24T07:42:44.401Z,2399.00
2023-05-24T07:43:44.372Z,2422.00
2023-05-24T07:44:44.342Z,2444.00
2023-05-24T07:45:44.476Z,2449.00
2023-05-24T07:46:44.344Z,2464.00
2023-05-24T07:47:44.363Z,2482.00
2023-05-24T07:48:44.312Z,2483.00
2023-05-24T07:49:44.274Z,2485.00
2023-05-24T07:50:44.490Z,2487.00
2023-05-24T07:51:44.309Z,2496.00
2023-05-24T07:52:44.219Z,2503.00
2023-05-24T07:53:44.238Z,2522.00
2023-05-24T07:54:44.218Z,2498.00
2023-05-24T07:55:44.363Z,2490.00
2023-05-24T07:56:44.179Z,2479.00
2023-05-24T07:57:44.155Z,2475.00
2023-05-24T07:58:44.135Z,2461.00
2023-05-24T07:59:44.125Z,2440.00
2023-05-24T08:00:44.149Z,2434.00
2023-05-24T08:01:44.126Z,2429.00
2023-05-24T08:02:44.361Z,2410.00
2023-05-24T08:03:44.292Z,2403.00
2023-05-24T08:04:44.105Z,2414.00
2023-05-24T08:05:44.379Z,2406.00
2023-05-24T08:06:44.141Z,2405.00
2023-05-24T08:07:44.128Z,2407.00
2023-05-24T08:08:44.070Z,2391.00
2023-05-24T08:09:44.086Z,2371.00
2023-05-24T08:10:44.075Z,2369.00
2023-05-24T08:11:44.067Z,2359.00
2023-05-24T08:12:44.043Z,2360.00
2023-05-24T08:13:44.026Z,2357.00
2023-05-24T08:14:44.010Z,2341.00
2023-05-24T08:15:44.187Z,2333.00
2023-05-24T08:16:44.101Z,2315.00
2023-05-24T08:17:43.989Z,2316.00
2023-05-24T08:18:43.988Z,2299.00
2023-05-24T08:19:43.936Z,2302.00
2023-05-24T08:20:44.005Z,2286.00
2023-05-24T08:21:43.900Z,2266.00
2023-05-24T08:22:43.984Z,2264.00
2023-05-24T08:23:43.870Z,2259.00
2023-05-24T08:24:43.856Z,2241.00
2023-05-24T08:25:44.055Z,2241.00
2023-05-24T08:26:44.782Z,2227.00
2023-05-24T08:27:43.830Z,2196.00
2023-05-24T08:28:43.833Z,2203.00
2023-05-24T08:29:43.799Z,2197.00
2023-05-24T08:30:43.811Z,2186.00
2023-05-24T08:31:43.870Z,2153.00
2023-05-24T08:32:43.760Z,2153.00
2023-05-24T08:33:43.712Z,2156.00
2023-05-24T08:34:43.706Z,2136.00
2023-05-24T08:35:43.955Z,2138.00
2023-05-24T08:36:43.754Z,2135.00
2023-05-24T08:37:43.759Z,2115.00
2023-05-24T08:38:43.746Z,2077.00
2023-05-24T08:39:43.754Z,1962.00
2023-05-24T08:40:43.789Z,1789.00
2023-05-24T08:41:45.790Z,1570.00
2023-05-24T08:42:44.780Z,1468.00
2023-05-24T08:43:43.769Z,1305.00
2023-05-24T08:44:43.731Z,1278.00
2023-05-24T08:45:44.006Z,1302.00
2023-05-24T08:46:43.769Z,1419.00
2023-05-24T08:47:43.775Z,1462.00
2023-05-24T08:48:43.767Z,1456.00
2023-05-24T08:49:43.684Z,1494.00
2023-05-24T08:50:43.753Z,1490.00
2023-05-24T08:51:43.646Z,1488.00
2023-05-24T08:52:43.637Z,1489.00
2023-05-24T08:53:43.608Z,1491.00
2023-05-24T08:54:43.618Z,1483.00
2023-05-24T08:55:43.924Z,1465.00
2023-05-24T08:56:43.593Z,1467.00
2023-05-24T08:57:43.548Z,1471.00
2023-05-24T08:58:43.539Z,1484.00
2023-05-24T08:59:43.519Z,1486.00
2023-05-24T09:00:43.526Z,1483.00
2023-05-24T09:01:43.542Z,1497.00
2023-05-24T09:02:43.518Z,1523.00
2023-05-24T09:03:43.506Z,1509.00
2023-05-24T09:04:43.436Z,1526.00
2023-05-24T09:05:43.705Z,1513.00
2023-05-24T09:06:43.430Z,1519.00
2023-05-24T09:07:43.412Z,1512.00
2023-05-24T09:08:44.156Z,1507.00
2023-05-24T09:09:43.375Z,1500.00
2023-05-24T09:10:53.946Z,1490.00
2023-05-24T09:11:44.337Z,1491.00
2023-05-24T09:12:43.385Z,1492.00
2023-05-24T09:13:43.307Z,1494.00
2023-05-24T09:14:43.295Z,1496.00
2023-05-24T09:15:43.410Z,1494.00
2023-05-24T09:16:43.322Z,1495.00
2023-05-24T09:17:43.246Z,1492.00
2023-05-24T09:18:43.265Z,1493.00
2023-05-24T09:19:43.176Z,1488.00
2023-05-24T09:20:43.287Z,1490.00
2023-05-24T09:21:44.813Z,1481.00
2023-05-24T09:22:43.151Z,1484.00
2023-05-24T09:23:43.107Z,1480.00
2023-05-24T09:24:43.100Z,1476.00
2023-05-24T09:25:43.078Z,1472.00
2023-05-24T09:26:43.061Z,1469.00
2023-05-24T09:27:43.034Z,1474.00
2023-05-24T09:28:43.029Z,1469.00
2023-05-24T09:29:42.991Z,1469.00
2023-05-24T09:30:43.144Z,1467.00
2023-05-24T09:31:43.039Z,1466.00
2023-05-24T09:32:43.008Z,1460.00
2023-05-24T09:33:42.903Z,1462.00
2023-05-24T09:34:42.908Z,1453.00
2023-05-24T09:35:42.914Z,1451.00
2023-05-24T09:36:42.977Z,1445.00
2023-05-24T09:37:42.961Z,1445.00
2023-05-24T09:38:42.978Z,1447.00
2023-05-24T09:39:42.971Z,1444.00
2023-05-24T09:40:43.069Z,1442.00
2023-05-24T09:41:43.006Z,1477.00
2023-05-24T09:42:43.136Z,1541.00
2023-05-24T09:43:43.030Z,1547.00
2023-05-24T09:44:43.096Z,1597.00
2023-05-24T09:45:43.057Z,1636.00
2023-05-24T09:46:43.169Z,1719.00
2023-05-24T09:47:43.211Z,1806.00
2023-05-24T09:48:43.105Z,1878.00
2023-05-24T09:49:43.097Z,1936.00
2023-05-24T09:50:43.415Z,1999.00
2023-05-24T09:51:43.302Z,2034.00
2023-05-24T09:52:43.167Z,2082.00
2023-05-24T09:53:43.137Z,2097.00
2023-05-24T09:54:43.102Z,2114.00
2023-05-24T09:55:43.113Z,2146.00
2023-05-24T09:56:43.106Z,2148.00
2023-05-24T09:57:43.077Z,2157.00
2023-05-24T09:58:43.071Z,2181.00
2023-05-24T09:59:43.018Z,2244.00
2023-05-24T10:00:43.618Z,2329.00
2023-05-24T10:01:43.067Z,2363.00
2023-05-24T10:02:52.232Z,2386.00
2023-05-24T10:03:44.056Z,2388.00
2023-05-24T10:04:42.946Z,2400.00
2023-05-24T10:05:42.908Z,2429.00
2023-05-24T10:06:42.864Z,2479.00
2023-05-24T10:07:42.816Z,2568.00
2023-05-24T10:08:42.790Z,2619.00
2023-05-24T10:09:42.765Z,2657.00
2023-05-24T10:10:43.008Z,2666.00
2023-05-24T10:11:42.757Z,2678.00
2023-05-24T10:12:42.783Z,2688.00
2023-05-24T10:13:42.798Z,2707.00
2023-05-24T10:14:42.942Z,2706.00
2023-05-24T10:15:42.838Z,2708.00
2023-05-24T10:16:42.856Z,2704.00
2023-05-24T10:17:42.895Z,2696.00
2023-05-24T10:18:42.859Z,2690.00
2023-05-24T10:19:42.841Z,2677.00
2023-05-24T10:20:43.302Z,2666.00
2023-05-24T10:21:42.905Z,2648.00
2023-05-24T10:22:42.851Z,2626.00
2023-05-24T10:23:42.778Z,2614.00
2023-05-24T10:24:42.767Z,2599.00
2023-05-24T10:25:42.771Z,2579.00
2023-05-24T10:26:42.756Z,2569.00
2023-05-24T10:27:42.713Z,2544.00
2023-05-24T10:28:42.728Z,2536.00
2023-05-24T10:29:42.711Z,2536.00
2023-05-24T10:30:43.126Z,2535.00
2023-05-24T10:31:42.788Z,2508.00
2023-05-24T10:32:42.653Z,2484.00
2023-05-24T10:33:42.588Z,2473.00
2023-05-24T10:34:42.576Z,2452.00
2023-05-24T10:35:42.574Z,2453.00
2023-05-24T10:36:42.540Z,2453.00
2023-05-24T10:37:42.516Z,2449.00
2023-05-24T10:38:42.874Z,2425.00
2023-05-24T10:39:42.457Z,2456.00
2023-05-24T10:40:42.460Z,2489.00
2023-05-24T10:41:42.496Z,2495.00
2023-05-24T10:42:42.410Z,2480.00
2023-05-24T10:43:42.482Z,2463.00
2023-05-24T10:44:42.389Z,2452.00
2023-05-24T10:45:42.383Z,2430.00
2023-05-24T10:46:42.508Z,2405.00
2023-05-24T10:47:42.344Z,2380.00
2023-05-24T10:48:42.290Z,2349.00
2023-05-24T10:49:42.294Z,2349.00
2023-05-24T10:50:42.679Z,2320.00
2023-05-24T10:51:42.347Z,2321.00
2023-05-24T10:52:42.251Z,2282.00
2023-05-24T10:53:42.195Z,2277.00
2023-05-24T10:54:52.483Z,2224.00
2023-05-24T10:55:43.168Z,2235.00
2023-05-24T10:56:42.156Z,2220.00
2023-05-24T10:57:42.131Z,2195.00
2023-05-24T10:58:42.111Z,2170.00
2023-05-24T10:59:42.079Z,2144.00
2023-05-24T11:00:42.073Z,2120.00
2023-05-24T11:01:42.087Z,2098.00
2023-05-24T11:02:42.097Z,2090.00
2023-05-24T11:03:42.018Z,2071.00
2023-05-24T11:04:41.991Z,2041.00
2023-05-24T11:05:43.275Z,2023.00
2023-05-24T11:06:41.949Z,2007.00
2023-05-24T11:07:41.927Z,2007.00
2023-05-24T11:08:41.900Z,2003.00
2023-05-24T11:09:41.914Z,1983.00
2023-05-24T11:10:43.124Z,1984.00
2023-05-24T11:11:41.837Z,1984.00
2023-05-24T11:12:41.823Z,1944.00
2023-05-24T11:13:41.802Z,1942.00
2023-05-24T11:14:41.801Z,1943.00
2023-05-24T11:15:41.830Z,1927.00
2023-05-24T11:16:41.907Z,1902.00
2023-05-24T11:17:43.577Z,1903.00
2023-05-24T11:18:41.746Z,1896.00
2023-05-24T11:19:41.715Z,1899.00
2023-05-24T11:20:42.189Z,1876.00
2023-05-24T11:21:41.709Z,1856.00
2023-05-24T11:22:41.671Z,1838.00
2023-05-24T11:23:41.655Z,1833.00
2023-05-24T11:24:41.655Z,1820.00
2023-05-24T11:25:41.651Z,1816.00
2023-05-24T11:26:41.652Z,1793.00
2023-05-24T11:27:41.626Z,1843.00
2023-05-24T11:28:41.678Z,1872.00
2023-05-24T11:29:41.684Z,1896.00
2023-05-24T11:30:41.811Z,1916.00
2023-05-24T11:31:44.055Z,1917.00
2023-05-24T11:32:41.640Z,1921.00
2023-05-24T11:33:41.562Z,1925.00
2023-05-24T11:34:41.520Z,1929.00
2023-05-24T11:35:41.528Z,1926.00
2023-05-24T11:36:41.507Z,1933.00
2023-05-24T11:37:46.370Z,1922.00
2023-05-24T11:38:42.491Z,1922.00
2023-05-24T11:39:41.466Z,1923.00
2023-05-24T11:40:41.609Z,1901.00
2023-05-24T11:41:41.482Z,1902.00
2023-05-24T11:42:41.458Z,1900.00
2023-05-24T11:43:41.421Z,1896.00
2023-05-24T11:44:41.409Z,1888.00
2023-05-24T11:45:41.385Z,1884.00
2023-05-24T11:46:41.408Z,1874.00
2023-05-24T11:47:41.370Z,1880.00
2023-05-24T11:48:42.333Z,1874.00
2023-05-24T11:49:41.348Z,1861.00
2023-05-24T11:50:49.307Z,1864.00
2023-05-24T11:51:42.443Z,1864.00
2023-05-24T11:52:41.245Z,1861.00
2023-05-24T11:53:41.248Z,1863.00
2023-05-24T11:54:41.214Z,1853.00
2023-05-24T11:55:41.356Z,1845.00
2023-05-24T11:56:41.232Z,1834.00
2023-05-24T11:57:41.184Z,1828.00
2023-05-24T11:58:41.137Z,1828.00
2023-05-24T11:59:41.129Z,1813.00
2023-05-24T12:00:41.239Z,1803.00
2023-05-24T12:01:41.061Z,1805.00
2023-05-24T12:02:41.146Z,1790.00
2023-05-24T12:03:41.166Z,1794.00
2023-05-24T12:04:41.050Z,1776.00
2023-05-24T12:05:40.995Z,1764.00
2023-05-24T12:06:40.996Z,1761.00
2023-05-24T12:07:41.002Z,1767.00
2023-05-24T12:08:41.044Z,1744.00
2023-05-24T12:09:40.998Z,1745.00
2023-05-24T12:10:41.201Z,1746.00
2023-05-24T12:11:40.964Z,1732.00
2023-05-24T12:12:45.710Z,1740.00
2023-05-24T12:13:41.957Z,1745.00
2023-05-24T12:14:41.063Z,1746.00
2023-05-24T12:15:41.010Z,1746.00